sensor_id;sensor_type;location;lat;lon;timestamp;pressure;altitude;pressure_sealevel;temperature;humidity
23417;BME280;11881;42.432;25.632;2024-01-07T00:01:38;98168.44;;;12.47;100.00
23417;BME280;11881;42.432;25.632;2024-01-07T00:04:03;98168.25;;;12.72;100.00
23417;BME280;11881;42.432;25.632;2024-01-07T00:06:29;98159.31;;;12.65;100.00
23417;BME280;11881;42.432;25.632;2024-01-07T00:08:54;98163.63;;;12.66;100.00
23417;BME280;11881;42.432;25.632;2024-01-07T00:11:20;98142.28;;;12.81;100.00
23417;BME280;11881;42.432;25.632;2024-01-07T00:13:46;98133.44;;;12.80;100.00
23417;BME280;11881;42.432;25.632;2024-01-07T00:16:11;98138.75;;;12.65;100.00
23417;BME280;11881;42.432;25.632;2024-01-07T00:18:37;98108.94;;;12.76;100.00
23417;BME280;11881;42.432;25.632;2024-01-07T00:21:02;98079.44;;;12.70;100.00
23417;BME280;11881;42.432;25.632;2024-01-07T00:23:28;98071.41;;;12.70;100.00
23417;BME280;11881;42.432;25.632;2024-01-07T00:25:53;98078.88;;;12.74;100.00
23417;BME280;11881;42.432;25.632;2024-01-07T00:28:20;98081.00;;;12.64;100.00
23417;BME280;11881;42.432;25.632;2024-01-07T00:30:45;98079.19;;;12.57;100.00
23417;BME280;11881;42.432;25.632;2024-01-07T00:33:11;98088.97;;;12.49;100.00
23417;BME280;11881;42.432;25.632;2024-01-07T00:35:36;98105.47;;;12.30;100.00
23417;BME280;11881;42.432;25.632;2024-01-07T00:38:02;98120.84;;;12.28;100.00
23417;BME280;11881;42.432;25.632;2024-01-07T00:40:27;98122.38;;;12.45;100.00
23417;BME280;11881;42.432;25.632;2024-01-07T00:42:53;98120.88;;;12.66;100.00
23417;BME280;11881;42.432;25.632;2024-01-07T00:45:18;98129.53;;;12.68;100.00
23417;BME280;11881;42.432;25.632;2024-01-07T00:47:44;98130.31;;;12.76;100.00
23417;BME280;11881;42.432;25.632;2024-01-07T00:50:10;98120.06;;;12.65;100.00
23417;BME280;11881;42.432;25.632;2024-01-07T00:52:35;98110.78;;;12.76;100.00
23417;BME280;11881;42.432;25.632;2024-01-07T00:55:03;98125.28;;;12.59;100.00
23417;BME280;11881;42.432;25.632;2024-01-07T00:57:29;98117.81;;;12.69;100.00
23417;BME280;11881;42.432;25.632;2024-01-07T00:59:55;98123.25;;;12.61;100.00
23417;BME280;11881;42.432;25.632;2024-01-07T01:02:21;98117.09;;;12.75;100.00
23417;BME280;11881;42.432;25.632;2024-01-07T01:04:47;98114.72;;;12.65;100.00
23417;BME280;11881;42.432;25.632;2024-01-07T01:07:12;98100.63;;;12.71;100.00
23417;BME280;11881;42.432;25.632;2024-01-07T01:09:38;98086.78;;;12.68;100.00
23417;BME280;11881;42.432;25.632;2024-01-07T01:12:04;98051.66;;;12.56;100.00
23417;BME280;11881;42.432;25.632;2024-01-07T01:14:29;98053.34;;;12.72;100.00
23417;BME280;11881;42.432;25.632;2024-01-07T01:16:55;98055.31;;;12.40;100.00
23417;BME280;11881;42.432;25.632;2024-01-07T01:19:20;98035.91;;;12.61;100.00
23417;BME280;11881;42.432;25.632;2024-01-07T01:21:46;98014.44;;;12.69;100.00
23417;BME280;11881;42.432;25.632;2024-01-07T01:24:11;98021.72;;;12.61;100.00
23417;BME280;11881;42.432;25.632;2024-01-07T01:26:37;98031.88;;;12.80;100.00
23417;BME280;11881;42.432;25.632;2024-01-07T01:29:04;98025.25;;;12.76;100.00
23417;BME280;11881;42.432;25.632;2024-01-07T01:31:30;98020.91;;;12.90;100.00
23417;BME280;11881;42.432;25.632;2024-01-07T01:33:56;98031.41;;;12.91;100.00
23417;BME280;11881;42.432;25.632;2024-01-07T01:36:21;98016.75;;;13.02;100.00
23417;BME280;11881;42.432;25.632;2024-01-07T01:38:46;97991.31;;;12.62;100.00
23417;BME280;11881;42.432;25.632;2024-01-07T01:41:14;97985.72;;;12.71;100.00
23417;BME280;11881;42.432;25.632;2024-01-07T01:43:39;97978.72;;;12.70;100.00
23417;BME280;11881;42.432;25.632;2024-01-07T01:46:05;97988.84;;;12.75;100.00
23417;BME280;11881;42.432;25.632;2024-01-07T01:48:31;97986.72;;;12.85;100.00
23417;BME280;11881;42.432;25.632;2024-01-07T01:50:56;97984.50;;;13.03;100.00
23417;BME280;11881;42.432;25.632;2024-01-07T01:53:24;97969.59;;;12.94;100.00
23417;BME280;11881;42.432;25.632;2024-01-07T01:55:51;97949.38;;;12.92;100.00
23417;BME280;11881;42.432;25.632;2024-01-07T01:58:17;97939.50;;;12.92;100.00
23417;BME280;11881;42.432;25.632;2024-01-07T02:00:44;97944.94;;;13.14;100.00
23417;BME280;11881;42.432;25.632;2024-01-07T02:03:10;97944.50;;;12.95;100.00
23417;BME280;11881;42.432;25.632;2024-01-07T02:05:35;97942.53;;;13.04;100.00
23417;BME280;11881;42.432;25.632;2024-01-07T02:08:01;97946.44;;;13.01;100.00
23417;BME280;11881;42.432;25.632;2024-01-07T02:10:26;97939.22;;;13.02;100.00
23417;BME280;11881;42.432;25.632;2024-01-07T02:12:54;97938.16;;;12.82;100.00
23417;BME280;11881;42.432;25.632;2024-01-07T02:15:19;97925.03;;;13.01;100.00
23417;BME280;11881;42.432;25.632;2024-01-07T02:17:45;97926.81;;;12.20;100.00
23417;BME280;11881;42.432;25.632;2024-01-07T02:20:11;97915.81;;;12.53;100.00
23417;BME280;11881;42.432;25.632;2024-01-07T02:22:36;97911.56;;;12.59;100.00
23417;BME280;11881;42.432;25.632;2024-01-07T02:25:02;97910.97;;;12.63;100.00
23417;BME280;11881;42.432;25.632;2024-01-07T02:27:27;97899.00;;;12.74;100.00
23417;BME280;11881;42.432;25.632;2024-01-07T02:29:52;97893.22;;;12.56;100.00
23417;BME280;11881;42.432;25.632;2024-01-07T02:32:18;97890.00;;;12.31;100.00
23417;BME280;11881;42.432;25.632;2024-01-07T02:34:44;97882.44;;;12.34;100.00
23417;BME280;11881;42.432;25.632;2024-01-07T02:37:09;97879.78;;;12.49;100.00
23417;BME280;11881;42.432;25.632;2024-01-07T02:39:35;97861.72;;;12.51;100.00
23417;BME280;11881;42.432;25.632;2024-01-07T02:42:01;97860.13;;;12.57;100.00
23417;BME280;11881;42.432;25.632;2024-01-07T02:44:26;97833.00;;;12.53;100.00
23417;BME280;11881;42.432;25.632;2024-01-07T02:46:52;97838.41;;;12.45;100.00
23417;BME280;11881;42.432;25.632;2024-01-07T02:49:17;97824.72;;;12.48;100.00
23417;BME280;11881;42.432;25.632;2024-01-07T02:51:43;97817.72;;;12.47;100.00
23417;BME280;11881;42.432;25.632;2024-01-07T02:54:11;97817.31;;;12.65;100.00
23417;BME280;11881;42.432;25.632;2024-01-07T02:56:36;97806.75;;;12.78;100.00
23417;BME280;11881;42.432;25.632;2024-01-07T02:59:01;97822.16;;;12.76;100.00
23417;BME280;11881;42.432;25.632;2024-01-07T03:01:27;97810.75;;;12.67;100.00
23417;BME280;11881;42.432;25.632;2024-01-07T03:03:53;97837.75;;;12.58;100.00
23417;BME280;11881;42.432;25.632;2024-01-07T03:06:18;97829.56;;;12.59;100.00
23417;BME280;11881;42.432;25.632;2024-01-07T03:08:43;97830.19;;;12.76;100.00
23417;BME280;11881;42.432;25.632;2024-01-07T03:11:09;97824.50;;;12.35;100.00
23417;BME280;11881;42.432;25.632;2024-01-07T03:13:34;97810.22;;;12.57;100.00
23417;BME280;11881;42.432;25.632;2024-01-07T03:16:00;97796.94;;;12.64;100.00
23417;BME280;11881;42.432;25.632;2024-01-07T03:18:27;97783.69;;;12.56;100.00
23417;BME280;11881;42.432;25.632;2024-01-07T03:20:52;97760.59;;;12.48;100.00
23417;BME280;11881;42.432;25.632;2024-01-07T03:23:17;97756.31;;;12.32;100.00
23417;BME280;11881;42.432;25.632;2024-01-07T03:25:44;97749.72;;;12.49;100.00
23417;BME280;11881;42.432;25.632;2024-01-07T03:28:09;97744.13;;;12.44;100.00
23417;BME280;11881;42.432;25.632;2024-01-07T03:30:35;97738.41;;;12.47;100.00
23417;BME280;11881;42.432;25.632;2024-01-07T03:33:00;97740.81;;;12.42;100.00
23417;BME280;11881;42.432;25.632;2024-01-07T03:35:26;97726.72;;;12.48;100.00
23417;BME280;11881;42.432;25.632;2024-01-07T03:37:51;97726.31;;;12.15;100.00
23417;BME280;11881;42.432;25.632;2024-01-07T03:40:17;97718.66;;;12.27;100.00
23417;BME280;11881;42.432;25.632;2024-01-07T03:42:42;97712.28;;;12.28;100.00
23417;BME280;11881;42.432;25.632;2024-01-07T03:45:08;97707.69;;;12.37;100.00
23417;BME280;11881;42.432;25.632;2024-01-07T03:47:34;97696.16;;;12.58;100.00
23417;BME280;11881;42.432;25.632;2024-01-07T03:49:59;97700.94;;;12.41;100.00
23417;BME280;11881;42.432;25.632;2024-01-07T03:52:25;97709.22;;;12.67;100.00
23417;BME280;11881;42.432;25.632;2024-01-07T03:54:50;97720.13;;;12.87;100.00
23417;BME280;11881;42.432;25.632;2024-01-07T03:57:16;97730.41;;;12.90;100.00
23417;BME280;11881;42.432;25.632;2024-01-07T03:59:41;97723.03;;;12.35;100.00
23417;BME280;11881;42.432;25.632;2024-01-07T04:02:07;97710.09;;;12.32;100.00
23417;BME280;11881;42.432;25.632;2024-01-07T04:04:32;97704.91;;;12.66;100.00
23417;BME280;11881;42.432;25.632;2024-01-07T04:06:58;97697.50;;;12.11;100.00
23417;BME280;11881;42.432;25.632;2024-01-07T04:09:23;97696.53;;;12.33;100.00
23417;BME280;11881;42.432;25.632;2024-01-07T04:11:49;97689.34;;;12.34;100.00
23417;BME280;11881;42.432;25.632;2024-01-07T04:14:15;97676.66;;;12.57;100.00
23417;BME280;11881;42.432;25.632;2024-01-07T04:16:41;97682.34;;;12.33;100.00
23417;BME280;11881;42.432;25.632;2024-01-07T04:19:06;97673.59;;;12.39;100.00
23417;BME280;11881;42.432;25.632;2024-01-07T04:21:32;97679.81;;;12.46;100.00
23417;BME280;11881;42.432;25.632;2024-01-07T04:23:57;97691.31;;;12.25;100.00
23417;BME280;11881;42.432;25.632;2024-01-07T04:26:23;97685.25;;;12.16;100.00
23417;BME280;11881;42.432;25.632;2024-01-07T04:28:48;97678.31;;;12.01;100.00
23417;BME280;11881;42.432;25.632;2024-01-07T04:31:14;97653.19;;;12.31;100.00
23417;BME280;11881;42.432;25.632;2024-01-07T04:33:39;97642.72;;;12.30;100.00
23417;BME280;11881;42.432;25.632;2024-01-07T04:36:05;97638.00;;;12.32;100.00
23417;BME280;11881;42.432;25.632;2024-01-07T04:38:31;97634.09;;;12.13;100.00
23417;BME280;11881;42.432;25.632;2024-01-07T04:40:56;97629.91;;;12.46;100.00
23417;BME280;11881;42.432;25.632;2024-01-07T04:43:22;97636.50;;;12.29;100.00
23417;BME280;11881;42.432;25.632;2024-01-07T04:45:47;97637.84;;;12.40;100.00
23417;BME280;11881;42.432;25.632;2024-01-07T04:48:13;97642.88;;;12.49;100.00
23417;BME280;11881;42.432;25.632;2024-01-07T04:50:41;97638.06;;;12.60;100.00
23417;BME280;11881;42.432;25.632;2024-01-07T04:53:08;97638.16;;;12.51;100.00
23417;BME280;11881;42.432;25.632;2024-01-07T04:55:33;97645.03;;;12.61;100.00
23417;BME280;11881;42.432;25.632;2024-01-07T04:57:59;97644.22;;;12.60;100.00
23417;BME280;11881;42.432;25.632;2024-01-07T05:00:25;97648.59;;;12.68;100.00
23417;BME280;11881;42.432;25.632;2024-01-07T05:02:50;97653.44;;;12.58;100.00
23417;BME280;11881;42.432;25.632;2024-01-07T05:05:16;97661.06;;;12.61;100.00
23417;BME280;11881;42.432;25.632;2024-01-07T05:07:41;97650.06;;;12.49;100.00
23417;BME280;11881;42.432;25.632;2024-01-07T05:10:07;97655.16;;;12.65;100.00
23417;BME280;11881;42.432;25.632;2024-01-07T05:12:33;97642.44;;;12.67;100.00
23417;BME280;11881;42.432;25.632;2024-01-07T05:14:58;97647.59;;;12.47;100.00
23417;BME280;11881;42.432;25.632;2024-01-07T05:17:24;97645.00;;;12.54;100.00
23417;BME280;11881;42.432;25.632;2024-01-07T05:19:49;97634.06;;;12.49;100.00
23417;BME280;11881;42.432;25.632;2024-01-07T05:22:15;97632.50;;;12.40;100.00
23417;BME280;11881;42.432;25.632;2024-01-07T05:24:40;97614.22;;;12.37;100.00
23417;BME280;11881;42.432;25.632;2024-01-07T05:27:06;97620.25;;;12.24;100.00
23417;BME280;11881;42.432;25.632;2024-01-07T05:29:32;97643.31;;;12.10;100.00
23417;BME280;11881;42.432;25.632;2024-01-07T05:32:01;97645.25;;;12.38;100.00
23417;BME280;11881;42.432;25.632;2024-01-07T05:34:28;97634.44;;;12.24;100.00
23417;BME280;11881;42.432;25.632;2024-01-07T05:36:53;97641.16;;;12.20;100.00
23417;BME280;11881;42.432;25.632;2024-01-07T05:39:19;97646.69;;;12.19;100.00
23417;BME280;11881;42.432;25.632;2024-01-07T05:41:45;97657.94;;;12.14;100.00
23417;BME280;11881;42.432;25.632;2024-01-07T05:44:11;97661.28;;;12.23;100.00
23417;BME280;11881;42.432;25.632;2024-01-07T05:46:40;97663.06;;;12.16;100.00
23417;BME280;11881;42.432;25.632;2024-01-07T05:49:06;97660.56;;;11.93;100.00
23417;BME280;11881;42.432;25.632;2024-01-07T05:51:32;97617.41;;;11.89;100.00
23417;BME280;11881;42.432;25.632;2024-01-07T05:53:57;97639.13;;;11.86;100.00
23417;BME280;11881;42.432;25.632;2024-01-07T05:56:23;97640.34;;;11.84;100.00
23417;BME280;11881;42.432;25.632;2024-01-07T05:58:49;97642.72;;;11.79;100.00
23417;BME280;11881;42.432;25.632;2024-01-07T06:01:21;97644.19;;;11.81;100.00
23417;BME280;11881;42.432;25.632;2024-01-07T06:03:47;97643.25;;;11.74;100.00
23417;BME280;11881;42.432;25.632;2024-01-07T06:06:14;97643.72;;;11.78;100.00
23417;BME280;11881;42.432;25.632;2024-01-07T06:08:43;97654.69;;;11.68;100.00
23417;BME280;11881;42.432;25.632;2024-01-07T06:11:09;97653.66;;;11.69;100.00
23417;BME280;11881;42.432;25.632;2024-01-07T06:13:36;97647.97;;;11.72;100.00
23417;BME280;11881;42.432;25.632;2024-01-07T06:16:01;97646.47;;;11.69;100.00
23417;BME280;11881;42.432;25.632;2024-01-07T06:18:27;97648.59;;;11.74;100.00
23417;BME280;11881;42.432;25.632;2024-01-07T06:20:53;97640.25;;;11.77;100.00
23417;BME280;11881;42.432;25.632;2024-01-07T06:23:18;97626.50;;;11.80;100.00
23417;BME280;11881;42.432;25.632;2024-01-07T06:25:44;97622.94;;;11.73;100.00
23417;BME280;11881;42.432;25.632;2024-01-07T06:28:09;97629.03;;;11.67;100.00
23417;BME280;11881;42.432;25.632;2024-01-07T06:30:38;97636.28;;;11.58;100.00
23417;BME280;11881;42.432;25.632;2024-01-07T06:33:04;97616.59;;;11.59;100.00
23417;BME280;11881;42.432;25.632;2024-01-07T06:35:30;97622.03;;;11.66;100.00
23417;BME280;11881;42.432;25.632;2024-01-07T06:37:56;97624.72;;;11.66;100.00
23417;BME280;11881;42.432;25.632;2024-01-07T06:40:21;97632.34;;;11.39;100.00
23417;BME280;11881;42.432;25.632;2024-01-07T06:42:48;97632.81;;;11.43;100.00
23417;BME280;11881;42.432;25.632;2024-01-07T06:45:14;97640.72;;;11.51;100.00
23417;BME280;11881;42.432;25.632;2024-01-07T06:47:40;97644.66;;;11.40;100.00
23417;BME280;11881;42.432;25.632;2024-01-07T06:50:06;97643.09;;;11.61;100.00
23417;BME280;11881;42.432;25.632;2024-01-07T06:52:32;97651.38;;;11.51;100.00
23417;BME280;11881;42.432;25.632;2024-01-07T06:54:57;97652.75;;;11.62;100.00
23417;BME280;11881;42.432;25.632;2024-01-07T06:57:23;97637.84;;;11.67;100.00
23417;BME280;11881;42.432;25.632;2024-01-07T06:59:48;97633.34;;;11.68;100.00
23417;BME280;11881;42.432;25.632;2024-01-07T07:02:14;97631.03;;;11.65;100.00
23417;BME280;11881;42.432;25.632;2024-01-07T07:04:39;97642.25;;;11.75;100.00
23417;BME280;11881;42.432;25.632;2024-01-07T07:07:05;97637.94;;;11.89;100.00
23417;BME280;11881;42.432;25.632;2024-01-07T07:09:30;97648.69;;;11.81;100.00
23417;BME280;11881;42.432;25.632;2024-01-07T07:11:56;97652.09;;;11.75;100.00
23417;BME280;11881;42.432;25.632;2024-01-07T07:14:21;97660.75;;;11.91;100.00
23417;BME280;11881;42.432;25.632;2024-01-07T07:16:47;97663.88;;;11.95;100.00
23417;BME280;11881;42.432;25.632;2024-01-07T07:19:12;97667.38;;;11.95;100.00
23417;BME280;11881;42.432;25.632;2024-01-07T07:21:40;97666.50;;;12.10;100.00
23417;BME280;11881;42.432;25.632;2024-01-07T07:24:06;97657.19;;;12.20;100.00
23417;BME280;11881;42.432;25.632;2024-01-07T07:26:32;97646.69;;;12.40;100.00
23417;BME280;11881;42.432;25.632;2024-01-07T07:28:57;97657.25;;;12.48;100.00
23417;BME280;11881;42.432;25.632;2024-01-07T07:31:22;97656.75;;;12.60;100.00
23417;BME280;11881;42.432;25.632;2024-01-07T07:33:48;97661.00;;;12.54;100.00
23417;BME280;11881;42.432;25.632;2024-01-07T07:36:14;97662.41;;;12.50;100.00
23417;BME280;11881;42.432;25.632;2024-01-07T07:38:40;97660.81;;;12.56;100.00
23417;BME280;11881;42.432;25.632;2024-01-07T07:41:06;97663.34;;;12.64;100.00
23417;BME280;11881;42.432;25.632;2024-01-07T07:43:33;97652.41;;;12.80;100.00
23417;BME280;11881;42.432;25.632;2024-01-07T07:45:58;97644.22;;;12.82;100.00
23417;BME280;11881;42.432;25.632;2024-01-07T07:48:25;97634.59;;;12.87;100.00
23417;BME280;11881;42.432;25.632;2024-01-07T07:50:51;97628.78;;;12.84;100.00
23417;BME280;11881;42.432;25.632;2024-01-07T07:53:17;97631.03;;;12.80;100.00
23417;BME280;11881;42.432;25.632;2024-01-07T07:55:42;97633.38;;;12.90;100.00
23417;BME280;11881;42.432;25.632;2024-01-07T07:58:08;97615.72;;;12.67;100.00
23417;BME280;11881;42.432;25.632;2024-01-07T08:00:33;97624.03;;;12.79;100.00
23417;BME280;11881;42.432;25.632;2024-01-07T08:02:59;97628.50;;;12.72;100.00
23417;BME280;11881;42.432;25.632;2024-01-07T08:05:24;97630.06;;;12.88;100.00
23417;BME280;11881;42.432;25.632;2024-01-07T08:07:50;97636.91;;;12.97;100.00
23417;BME280;11881;42.432;25.632;2024-01-07T08:10:15;97633.28;;;13.04;100.00
23417;BME280;11881;42.432;25.632;2024-01-07T08:12:41;97649.53;;;13.31;100.00
23417;BME280;11881;42.432;25.632;2024-01-07T08:15:07;97635.59;;;13.14;100.00
23417;BME280;11881;42.432;25.632;2024-01-07T08:17:33;97652.88;;;13.40;100.00
23417;BME280;11881;42.432;25.632;2024-01-07T08:19:58;97653.09;;;13.45;100.00
23417;BME280;11881;42.432;25.632;2024-01-07T08:22:24;97660.66;;;12.85;100.00
23417;BME280;11881;42.432;25.632;2024-01-07T08:24:50;97659.31;;;12.96;100.00
23417;BME280;11881;42.432;25.632;2024-01-07T08:27:16;97659.47;;;12.88;100.00
23417;BME280;11881;42.432;25.632;2024-01-07T08:29:44;97668.41;;;13.01;100.00
23417;BME280;11881;42.432;25.632;2024-01-07T08:32:09;97662.03;;;13.02;100.00
23417;BME280;11881;42.432;25.632;2024-01-07T08:34:35;97666.22;;;13.12;100.00
23417;BME280;11881;42.432;25.632;2024-01-07T08:37:01;97660.00;;;13.04;100.00
23417;BME280;11881;42.432;25.632;2024-01-07T08:39:26;97645.88;;;13.11;100.00
23417;BME280;11881;42.432;25.632;2024-01-07T08:41:54;97643.66;;;12.65;100.00
23417;BME280;11881;42.432;25.632;2024-01-07T08:44:19;97631.84;;;13.09;100.00
23417;BME280;11881;42.432;25.632;2024-01-07T08:46:45;97626.75;;;13.14;100.00
23417;BME280;11881;42.432;25.632;2024-01-07T08:49:11;97634.53;;;13.09;100.00
23417;BME280;11881;42.432;25.632;2024-01-07T08:51:36;97633.56;;;13.16;100.00
23417;BME280;11881;42.432;25.632;2024-01-07T08:54:03;97632.72;;;13.16;100.00
23417;BME280;11881;42.432;25.632;2024-01-07T08:56:29;97637.84;;;13.11;100.00
23417;BME280;11881;42.432;25.632;2024-01-07T08:58:54;97626.13;;;13.40;100.00
23417;BME280;11881;42.432;25.632;2024-01-07T09:01:19;97617.34;;;13.52;100.00
23417;BME280;11881;42.432;25.632;2024-01-07T09:03:45;97609.81;;;13.69;100.00
23417;BME280;11881;42.432;25.632;2024-01-07T09:06:10;97604.59;;;13.61;100.00
23417;BME280;11881;42.432;25.632;2024-01-07T09:08:36;97610.09;;;13.94;100.00
23417;BME280;11881;42.432;25.632;2024-01-07T09:11:04;97608.69;;;14.11;100.00
23417;BME280;11881;42.432;25.632;2024-01-07T09:13:31;97595.97;;;14.40;100.00
23417;BME280;11881;42.432;25.632;2024-01-07T09:15:57;97588.97;;;14.32;100.00
23417;BME280;11881;42.432;25.632;2024-01-07T09:18:22;97578.28;;;14.66;100.00
23417;BME280;11881;42.432;25.632;2024-01-07T09:20:48;97589.84;;;14.66;100.00
23417;BME280;11881;42.432;25.632;2024-01-07T09:23:13;97588.38;;;15.03;100.00
23417;BME280;11881;42.432;25.632;2024-01-07T09:25:40;97585.00;;;15.34;100.00
23417;BME280;11881;42.432;25.632;2024-01-07T09:28:06;97572.22;;;15.30;100.00
23417;BME280;11881;42.432;25.632;2024-01-07T09:30:32;97568.22;;;15.52;100.00
23417;BME280;11881;42.432;25.632;2024-01-07T09:32:57;97568.53;;;15.89;100.00
23417;BME280;11881;42.432;25.632;2024-01-07T09:35:23;97579.91;;;15.84;100.00
23417;BME280;11881;42.432;25.632;2024-01-07T09:37:48;97570.38;;;15.24;100.00
23417;BME280;11881;42.432;25.632;2024-01-07T09:40:17;97570.34;;;15.30;100.00
23417;BME280;11881;42.432;25.632;2024-01-07T09:42:46;97557.78;;;15.31;100.00
23417;BME280;11881;42.432;25.632;2024-01-07T09:45:13;97562.59;;;14.82;100.00
23417;BME280;11881;42.432;25.632;2024-01-07T09:47:44;97558.50;;;14.80;100.00
23417;BME280;11881;42.432;25.632;2024-01-07T09:50:11;97556.63;;;14.60;100.00
23417;BME280;11881;42.432;25.632;2024-01-07T09:52:38;97562.19;;;14.72;100.00
23417;BME280;11881;42.432;25.632;2024-01-07T09:55:09;97553.56;;;14.63;100.00
23417;BME280;11881;42.432;25.632;2024-01-07T09:57:35;97540.38;;;14.69;100.00
23417;BME280;11881;42.432;25.632;2024-01-07T10:00:02;97529.63;;;14.82;100.00
23417;BME280;11881;42.432;25.632;2024-01-07T10:02:29;97520.31;;;14.98;100.00
23417;BME280;11881;42.432;25.632;2024-01-07T10:04:55;97509.69;;;15.29;100.00
23417;BME280;11881;42.432;25.632;2024-01-07T10:07:20;97516.03;;;15.41;100.00
23417;BME280;11881;42.432;25.632;2024-01-07T10:09:46;97510.28;;;15.38;100.00
23417;BME280;11881;42.432;25.632;2024-01-07T10:12:12;97508.88;;;15.29;100.00
23417;BME280;11881;42.432;25.632;2024-01-07T10:14:38;97501.63;;;15.29;100.00
23417;BME280;11881;42.432;25.632;2024-01-07T10:17:14;97497.84;;;14.92;100.00
23417;BME280;11881;42.432;25.632;2024-01-07T10:19:39;97501.31;;;14.99;100.00
23417;BME280;11881;42.432;25.632;2024-01-07T10:22:05;97496.97;;;15.05;100.00
23417;BME280;11881;42.432;25.632;2024-01-07T10:24:38;97487.28;;;15.04;100.00
23417;BME280;11881;42.432;25.632;2024-01-07T10:27:05;97482.94;;;15.09;100.00
23417;BME280;11881;42.432;25.632;2024-01-07T10:29:32;97490.16;;;15.09;100.00
23417;BME280;11881;42.432;25.632;2024-01-07T10:32:01;97475.50;;;15.11;100.00
23417;BME280;11881;42.432;25.632;2024-01-07T10:34:31;97479.59;;;15.21;100.00
23417;BME280;11881;42.432;25.632;2024-01-07T10:36:58;97458.34;;;15.26;100.00
23417;BME280;11881;42.432;25.632;2024-01-07T10:39:24;97462.53;;;15.47;100.00
23417;BME280;11881;42.432;25.632;2024-01-07T10:41:50;97454.72;;;15.45;100.00
23417;BME280;11881;42.432;25.632;2024-01-07T10:44:19;97456.84;;;15.30;100.00
23417;BME280;11881;42.432;25.632;2024-01-07T10:46:46;97447.50;;;15.46;100.00
23417;BME280;11881;42.432;25.632;2024-01-07T10:49:30;97453.75;;;15.33;100.00
23417;BME280;11881;42.432;25.632;2024-01-07T10:52:16;97446.38;;;15.22;100.00
23417;BME280;11881;42.432;25.632;2024-01-07T10:54:44;97442.47;;;15.17;100.00
23417;BME280;11881;42.432;25.632;2024-01-07T10:57:24;97455.69;;;15.12;100.00
23417;BME280;11881;42.432;25.632;2024-01-07T10:59:53;97454.88;;;15.12;100.00
23417;BME280;11881;42.432;25.632;2024-01-07T11:02:20;97448.50;;;15.06;100.00
23417;BME280;11881;42.432;25.632;2024-01-07T11:05:05;97456.53;;;15.06;100.00
23417;BME280;11881;42.432;25.632;2024-01-07T11:07:57;97450.13;;;15.07;100.00
23417;BME280;11881;42.432;25.632;2024-01-07T11:10:37;97442.38;;;14.93;100.00
23417;BME280;11881;42.432;25.632;2024-01-07T11:13:04;97446.72;;;14.87;100.00
23417;BME280;11881;42.432;25.632;2024-01-07T11:15:52;97436.84;;;14.74;100.00
23417;BME280;11881;42.432;25.632;2024-01-07T11:18:19;97434.00;;;14.62;100.00
23417;BME280;11881;42.432;25.632;2024-01-07T11:20:48;97421.19;;;14.64;100.00
23417;BME280;11881;42.432;25.632;2024-01-07T11:23:33;97424.75;;;14.52;100.00
23417;BME280;11881;42.432;25.632;2024-01-07T11:26:01;97429.91;;;14.33;100.00
23417;BME280;11881;42.432;25.632;2024-01-07T11:28:47;97425.16;;;14.35;100.00
23417;BME280;11881;42.432;25.632;2024-01-07T11:31:14;97425.34;;;14.41;100.00
23417;BME280;11881;42.432;25.632;2024-01-07T11:33:45;97427.63;;;14.24;100.00
23417;BME280;11881;42.432;25.632;2024-01-07T11:36:12;97421.44;;;14.36;100.00
23417;BME280;11881;42.432;25.632;2024-01-07T11:41:12;97420.22;;;14.32;100.00
23417;BME280;11881;42.432;25.632;2024-01-07T11:43:41;97420.22;;;14.32;100.00
23417;BME280;11881;42.432;25.632;2024-01-07T11:46:17;97410.72;;;14.36;100.00
23417;BME280;11881;42.432;25.632;2024-01-07T11:48:45;97400.81;;;14.63;100.00
23417;BME280;11881;42.432;25.632;2024-01-07T11:51:11;97394.03;;;14.41;100.00
23417;BME280;11881;42.432;25.632;2024-01-07T11:53:37;97405.94;;;14.65;100.00
23417;BME280;11881;42.432;25.632;2024-01-07T11:56:03;97406.19;;;14.57;100.00
23417;BME280;11881;42.432;25.632;2024-01-07T11:58:28;97394.16;;;14.79;100.00
23417;BME280;11881;42.432;25.632;2024-01-07T12:00:54;97406.91;;;14.84;100.00
23417;BME280;11881;42.432;25.632;2024-01-07T12:03:19;97405.22;;;14.89;100.00
23417;BME280;11881;42.432;25.632;2024-01-07T12:05:45;97395.94;;;14.99;100.00
23417;BME280;11881;42.432;25.632;2024-01-07T12:08:11;97402.13;;;14.99;100.00
23417;BME280;11881;42.432;25.632;2024-01-07T12:10:37;97400.09;;;14.88;100.00
23417;BME280;11881;42.432;25.632;2024-01-07T12:13:03;97389.38;;;14.88;100.00
23417;BME280;11881;42.432;25.632;2024-01-07T12:15:29;97385.94;;;15.12;100.00
23417;BME280;11881;42.432;25.632;2024-01-07T12:17:59;97383.41;;;15.31;100.00
23417;BME280;11881;42.432;25.632;2024-01-07T12:20:27;97379.53;;;15.52;100.00
23417;BME280;11881;42.432;25.632;2024-01-07T12:22:56;97376.13;;;15.38;100.00
23417;BME280;11881;42.432;25.632;2024-01-07T12:25:22;97384.72;;;15.15;100.00
23417;BME280;11881;42.432;25.632;2024-01-07T12:27:49;97386.72;;;15.26;100.00
23417;BME280;11881;42.432;25.632;2024-01-07T12:30:18;97387.53;;;15.27;100.00
23417;BME280;11881;42.432;25.632;2024-01-07T12:32:44;97387.50;;;15.33;100.00
23417;BME280;11881;42.432;25.632;2024-01-07T12:35:10;97383.59;;;15.29;100.00
23417;BME280;11881;42.432;25.632;2024-01-07T12:37:37;97378.19;;;15.36;100.00
23417;BME280;11881;42.432;25.632;2024-01-07T12:40:02;97371.34;;;15.40;100.00